Time;durP1;ratioP1;P1;durP2;ratioP2;P2;SDS_P1;SDS_P2;PMS_P1;PMS_P2;Temp;Humidity;BMP_temperature;BMP_pressure;BME280_temperature;BME280_humidity;BME280_pressure;Samples;Min_cycle;Max_cycle;Signal;HPM_P1;HPM_P2
2021/01/29 11:27:52;;;;;;;;;3.60;2.60;;;;;;;;1572753;27;83587;-92
2021/01/29 11:28:37;;;;;;;;;4.40;2.60;;;;;;;;1572015;27;84419;-91
2021/01/29 11:29:56;;;;;;;;;;;;;;;;;;;;;
2021/01/29 11:32:48;;;;;;;;;4.00;1.20;;;;;;;;1557671;28;83831;-92
2021/01/29 11:33:56;;;;;;;;;1.40;1.40;;;;;;;;1559948;28;85740;-92
2021/01/29 11:34:45;;;;;;;;;2.20;1.00;;;;;;;;1565126;27;83559;-91
2021/01/29 11:35:59;;;;;;;;;2.40;2.40;;;;;;;;1565044;27;85283;-92
2021/01/29 11:37:11;;;;;;;;;2.00;1.00;;;;;;;;1560832;28;84981;-92
2021/01/29 11:38:31;;;;;;;;;3.40;1.80;;;;;;;;1555713;28;85055;-93
2021/01/29 11:39:45;;;;;;;;;0.25;0.25;;;;;;;;1569963;27;85124;-93
2021/01/29 11:40:43;;;;;;;;;3.25;1.75;;;;;;;;1569084;27;83792;-93
2021/01/29 11:41:37;;;;;;;;;1.00;1.00;;;;;;;;1567125;27;83250;-92
2021/01/29 11:42:41;;;;;;;;;1.00;1.00;;;;;;;;1565708;27;83788;-93
2021/01/29 11:43:54;;;;;;;;;;;;;;;;;;;;;
2021/01/29 11:44:43;;;;;;;;;2.25;1.25;;;;;;;;1570008;27;111739;-92
2021/01/29 11:45:33;;;;;;;;;1.00;1.00;;;;;;;;1560895;27;84990;-93
2021/01/29 11:46:36;;;;;;;;;1.00;1.00;;;;;;;;1561307;28;83707;-91
2021/01/29 11:47:33;;;;;;;;;4.25;2.00;;;;;;;;1560244;28;85525;-92
2021/01/29 11:48:46;;;;;;;;;0.00;0.00;;;;;;;;1562001;28;83617;-92
2021/01/29 11:49:44;;;;;;;;;0.75;0.75;;;;;;;;1562745;28;85179;-92
2021/01/29 11:51:01;;;;;;;;;;;;;;;;;;;;;
2021/01/29 11:52:07;;;;;;;;;0.00;0.00;;;;;;;;1568087;27;112675;-92
2021/01/29 11:53:08;;;;;;;;;0.00;0.00;;;;;;;;1569814;27;85265;-94
2021/01/29 11:54:13;;;;;;;;;1.00;1.00;;;;;;;;1561358;28;83202;-93
2021/01/29 11:55:26;;;;;;;;;0.00;0.00;;;;;;;;1559085;28;85307;-93
2021/01/29 12:00:44;;;;;;;;;1.00;1.00;;;;;;;;1566948;27;83605;-94
2021/01/29 12:01:55;;;;;;;;;0.00;0.00;;;;;;;;1566131;27;85322;-93
2021/01/29 12:03:05;;;;;;;;;1.00;1.00;;;;;;;;1547875;28;85485;-93
2021/01/29 12:04:31;;;;;;;;;0.00;0.00;;;;;;;;1554294;28;85928;-93
2021/01/29 12:05:38;;;;;;;;;0.00;0.00;;;;;;;;1535159;28;84602;-93
2021/01/29 12:06:44;;;;;;;;;0.00;0.00;;;;;;;;1528737;28;84561;-92
2021/01/29 12:07:38;;;;;;;;;0.25;0.25;;;;;;;;1528919;28;85362;-93
2021/01/29 12:10:13;;;;;;;;;1.00;1.00;;;;;;;;1510645;28;84487;-93
2021/01/29 12:11:11;;;;;;;;;1.00;1.00;;;;;;;;1520903;28;85668;-92
2021/01/29 12:11:56;;;;;;;;;1.00;1.00;;;;;;;;1534249;28;86580;-92
2021/01/29 12:12:55;;;;;;;;;0.00;0.00;;;;;;;;1534603;28;86113;-92
2021/01/29 12:13:59;;;;;;;;;0.00;0.00;;;;;;;;1528674;28;84398;-93
2021/01/29 12:14:56;;;;;;;;;0.50;0.50;;;;;;;;1528524;28;85715;-93
2021/01/29 12:16:02;;;;;;;;;0.00;0.00;;;;;;;;1535009;28;85978;-93
2021/01/29 12:17:14;;;;;;;;;1.00;1.00;;;;;;;;1534917;28;84643;-94
2021/01/29 12:18:10;;;;;;;;;0.00;0.00;;;;;;;;1529971;28;84461;-94
2021/01/29 12:19:28;;;;;;;;;1.00;1.00;;;;;;;;1534269;28;85207;-92
2021/01/29 12:20:45;;;;;;;;;1.00;1.00;;;;;;;;1534824;28;85172;-92
2021/01/29 12:21:43;;;;;;;;;0.00;0.00;;;;;;;;1504871;29;85883;-92
2021/01/29 12:22:35;;;;;;;;;0.50;0.50;;;;;;;;1505551;29;85359;-91
2021/01/29 12:23:40;;;;;;;;;0.00;0.00;;;;;;;;1505114;29;85132;-92
2021/01/29 12:24:37;;;;;;;;;0.00;0.00;;;;;;;;1499521;29;85309;-90
2021/01/29 12:25:29;;;;;;;;;0.25;0.25;;;;;;;;1499121;29;85123;-92
2021/01/29 12:26:22;;;;;;;;;0.00;0.00;;;;;;;;1504027;29;85206;-90
2021/01/29 12:27:13;;;;;;;;;0.00;0.00;;;;;;;;1504675;29;85262;-90
2021/01/29 12:28:13;;;;;;;;;0.25;0.25;;;;;;;;1504887;29;85216;-91
2021/01/29 12:29:05;;;;;;;;;0.00;0.00;;;;;;;;1495022;29;85635;-90
2021/01/29 12:30:11;;;;;;;;;0.00;0.00;;;;;;;;1500532;29;83058;-94
2021/01/29 12:31:27;;;;;;;;;1.00;1.00;;;;;;;;1498810;29;83112;-94
2021/01/29 12:32:37;;;;;;;;;0.00;0.00;;;;;;;;1488088;29;83689;-93
2021/01/29 12:33:31;;;;;;;;;0.00;0.00;;;;;;;;1499629;29;83336;-91
2021/01/29 12:34:23;;;;;;;;;0.00;0.00;;;;;;;;1498985;29;83708;-91
2021/01/29 12:35:20;;;;;;;;;0.00;0.00;;;;;;;;1499188;29;83494;-91
2021/01/29 12:36:33;;;;;;;;;0.00;0.00;;;;;;;;1503338;29;83640;-93
2021/01/29 12:37:19;;;;;;;;;1.00;1.00;;;;;;;;1505614;29;83521;-93
2021/01/29 12:38:13;;;;;;;;;0.33;0.33;;;;;;;;1499077;29;83367;-94
2021/01/29 12:39:02;;;;;;;;;0.00;0.00;;;;;;;;1492195;29;83549;-92
2021/01/29 12:39:52;;;;;;;;;1.00;1.00;;;;;;;;1499191;29;83560;-93
2021/01/29 12:40:37;;;;;;;;;0.00;0.00;;;;;;;;1501320;29;83773;-93
2021/01/29 12:41:33;;;;;;;;;0.67;0.67;;;;;;;;1501089;29;83705;-93
2021/01/29 12:42:27;;;;;;;;;1.00;1.00;;;;;;;;1497967;29;83394;-93
2021/01/29 12:43:18;;;;;;;;;0.00;0.00;;;;;;;;1495409;29;83741;-93
2021/01/29 12:44:03;;;;;;;;;0.00;0.00;;;;;;;;1495157;29;83637;-93
2021/01/29 12:45:01;;;;;;;;;2.00;1.00;;;;;;;;1497726;29;83114;-92
2021/01/29 12:46:00;;;;;;;;;0.00;0.00;;;;;;;;1501020;29;83582;-91
2021/01/29 12:46:46;;;;;;;;;1.00;1.00;;;;;;;;1501305;29;82998;-92
2021/01/29 12:47:31;;;;;;;;;1.00;1.00;;;;;;;;1501377;28;83388;-93
2021/01/29 12:48:26;;;;;;;;;1.00;1.00;;;;;;;;1526914;28;83589;-92
2021/01/29 12:49:17;;;;;;;;;1.00;1.00;;;;;;;;1525621;28;83565;-92
2021/01/29 12:50:02;;;;;;;;;1.00;1.00;;;;;;;;1530568;28;83542;-92
2021/01/29 12:50:51;;;;;;;;;0.00;0.00;;;;;;;;1533341;28;83162;-92
2021/01/29 12:51:39;;;;;;;;;0.00;0.00;;;;;;;;1528800;28;83161;-91
2021/01/29 12:52:35;;;;;;;;;0.00;0.00;;;;;;;;1527157;28;83733;-93
2021/01/29 12:53:41;;;;;;;;;0.00;0.00;;;;;;;;1534548;28;83368;-91
2021/01/29 12:54:35;;;;;;;;;0.50;0.50;;;;;;;;1501615;29;83556;-93
2021/01/29 12:55:24;;;;;;;;;0.00;0.00;;;;;;;;1509898;28;83185;-91
2021/01/29 12:56:15;;;;;;;;;1.00;1.00;;;;;;;;1504786;29;85287;-91
2021/01/29 12:57:03;;;;;;;;;0.25;0.25;;;;;;;;1501422;29;83593;-92
2021/01/29 12:57:58;;;;;;;;;0.00;0.00;;;;;;;;1504696;28;84679;-90
2021/01/29 12:58:46;;;;;;;;;0.75;0.75;;;;;;;;1505230;29;83910;-92
2021/01/29 12:59:37;;;;;;;;;0.00;0.00;;;;;;;;1522627;28;84919;-92
2021/01/29 13:00:40;;;;;;;;;0.00;0.00;;;;;;;;1521958;28;84668;-92
2021/01/29 13:01:34;;;;;;;;;0.00;0.00;;;;;;;;1524291;28;86365;-93
2021/01/29 13:02:42;;;;;;;;;1.00;1.00;;;;;;;;1530677;28;86311;-92
2021/01/29 13:03:28;;;;;;;;;0.00;0.00;;;;;;;;1518834;28;86252;-92
2021/01/29 13:04:32;;;;;;;;;0.00;0.00;;;;;;;;1530811;28;83498;-92
2021/01/29 13:05:40;;;;;;;;;0.50;0.50;;;;;;;;1530566;28;84853;-91
2021/01/29 13:06:32;;;;;;;;;0.00;0.00;;;;;;;;1530272;28;84990;-92
2021/01/29 13:07:23;;;;;;;;;1.00;1.00;;;;;;;;1524830;28;83828;-93
2021/01/29 13:08:08;;;;;;;;;0.00;0.00;;;;;;;;1528523;28;83908;-92
2021/01/29 13:08:59;;;;;;;;;1.00;1.00;;;;;;;;1525175;28;84895;-92
2021/01/29 13:09:56;;;;;;;;;0.75;0.75;;;;;;;;1532597;28;85117;-92
2021/01/29 13:11:02;;;;;;;;;0.00;0.00;;;;;;;;1528431;28;84696;-92
2021/01/29 13:11:55;;;;;;;;;0.00;0.00;;;;;;;;1524344;28;86066;-91
2021/01/29 13:12:43;;;;;;;;;0.00;0.00;;;;;;;;1530625;28;86583;-92
2021/01/29 13:13:45;;;;;;;;;1.75;1.75;;;;;;;;1530878;28;85540;-91
2021/01/29 13:14:51;;;;;;;;;0.00;0.00;;;;;;;;1535581;28;85539;-91
2021/01/29 13:16:17;;;;;;;;;;;;;;;;;;;;;
2021/01/29 13:17:18;;;;;;;;;;;;;;;;;;1527125;28;112678;-93
2021/01/29 13:18:21;;;;;;;;;1.00;1.00;;;;;;;;1524075;28;85400;-94
2021/01/29 13:19:10;;;;;;;;;0.00;0.00;;;;;;;;1518143;28;86726;-95
2021/01/29 13:20:23;;;;;;;;;0.00;0.00;;;;;;;;1522844;28;84692;-94
2021/01/29 13:26:53;;;;;;;;;0.00;0.00;;;;;;;;1530393;28;83802;-94
2021/01/29 13:28:17;;;;;;;;;0.25;0.25;;;;;;;;1522537;28;85685;-94
2021/01/29 13:29:35;;;;;;;;;1.00;1.00;;;;;;;;1511531;28;84666;-92
2021/01/29 13:30:46;;;;;;;;;1.00;1.00;;;;;;;;1505678;29;86495;-93
2021/01/29 13:31:53;;;;;;;;;0.50;0.50;;;;;;;;1504489;29;85303;-94
2021/01/29 13:33:01;;;;;;;;;0.00;0.00;;;;;;;;1508371;28;84162;-94
2021/01/29 13:38:30;;;;;;;;;0.00;0.00;;;;;;;;1512475;28;83623;-94
2021/01/29 13:39:40;;;;;;;;;0.00;0.00;;;;;;;;1500616;29;85706;-93
2021/01/29 13:40:38;;;;;;;;;0.00;0.00;;;;;;;;1499773;29;85264;-93
2021/01/29 13:41:48;;;;;;;;;0.00;0.00;;;;;;;;1499862;29;85245;-93
2021/01/29 13:43:12;;;;;;;;;0.00;0.00;;;;;;;;1499822;29;85350;-93
2021/01/29 13:48:15;;;;;;;;;0.00;0.00;;;;;;;;1500908;29;83270;-92
2021/01/29 13:56:07;;;;;;;;;0.50;0.50;;;;;;;;1494711;29;83726;-93
2021/01/29 13:57:29;;;;;;;;;0.00;0.00;;;;;;;;1488705;29;86663;-94
2021/01/29 14:04:04;;;;;;;;;0.00;0.00;;;;;;;;1506522;29;83101;-92
2021/01/29 14:05:12;;;;;;;;;0.00;0.00;;;;;;;;1508174;29;84538;-92
2021/01/29 14:06:29;;;;;;;;;1.00;1.00;;;;;;;;1506972;28;83679;-93
2021/01/29 14:07:32;;;;;;;;;0.00;0.00;;;;;;;;1517541;28;84285;-93
2021/01/29 14:08:37;;;;;;;;;0.75;0.50;;;;;;;;1524603;28;83046;-93
2021/01/29 14:14:52;;;;;;;;;0.25;0.25;;;;;;;;1547285;28;83042;-93
2021/01/29 14:22:58;;;;;;;;;0.00;0.00;;;;;;;;1548307;28;83204;-93
2021/01/29 14:29:48;;;;;;;;;0.00;0.00;;;;;;;;1548280;28;83393;-92
2021/01/29 14:36:35;;;;;;;;;0.00;0.00;;;;;;;;1550835;28;82775;-94
2021/01/29 14:37:29;;;;;;;;;1.00;1.00;;;;;;;;1547977;28;83698;-94
2021/01/29 14:38:39;;;;;;;;;0.75;0.75;;;;;;;;1551502;28;85974;-93
2021/01/29 14:40:05;;;;;;;;;1.75;1.75;;;;;;;;1547268;28;84844;-93
2021/01/29 14:41:05;;;;;;;;;0.00;0.00;;;;;;;;1528852;28;83526;-92
2021/01/29 14:42:28;;;;;;;;;0.00;0.00;;;;;;;;1547229;28;85056;-92
2021/01/29 14:53:16;;;;;;;;;0.00;0.00;;;;;;;;1555508;28;83298;-92
